SVR234 URSS-UUDD
Flight info
| Callsign | SVR234 |
|---|---|
| Flight time | N/A |
| Altitude | 35000 |
| Route | K0828F350 IRGID1D IRGID A944 BEMES R227 KZ DCT DITEK/K0832F360 N50 OBABI/K0824F370 T619 LUGIL/K0817F360 T619 UMRAL DCT LAMKO DCT GOLRI L736 OLOPI OLOPI3N |
| Aircraft | A321/M-SDE3FGHIRWY/LB1 |
Departure
| Time | 2026-05-06 09:18 |
|---|---|
| Airport | Sochi International Airport (URSS) |
Arrival
| Time | N/A |
|---|---|
| Airport | Domodedovo International Airport (UUDD) |
| Time | Latitude | Longitude | Altitude | Speed | Heading |
|---|---|---|---|---|---|
| 2026-05-06 09:12 | 43.44814 | 39.94373 | 74 ft | 0 kts | 334° |
| 2026-05-06 09:12 | 43.44810 | 39.94375 | 74 ft | 2 kts | 334° |
| 2026-05-06 09:13 | 43.44799 | 39.94383 | 73 ft | 3 kts | 334° |
| 2026-05-06 09:13 | 43.44781 | 39.94394 | 67 ft | 3 kts | 335° |
| 2026-05-06 09:13 | 43.44762 | 39.94405 | 74 ft | 3 kts | 339° |
| 2026-05-06 09:13 | 43.44743 | 39.94414 | 74 ft | 3 kts | 345° |
| 2026-05-06 09:14 | 43.44724 | 39.94420 | 71 ft | 3 kts | 357° |
| 2026-05-06 09:14 | 43.44705 | 39.94418 | 65 ft | 3 kts | 26° |
| 2026-05-06 09:14 | 43.44694 | 39.94409 | 73 ft | 1 kts | 64° |
| 2026-05-06 09:14 | 43.44694 | 39.94407 | 75 ft | 0 kts | 65° |
| 2026-05-06 09:16 | 43.44706 | 39.94442 | 70 ft | 10 kts | 65° |
| 2026-05-06 09:16 | 43.44754 | 39.94580 | 69 ft | 22 kts | 63° |
| 2026-05-06 09:16 | 43.44833 | 39.94806 | 69 ft | 31 kts | 65° |
| 2026-05-06 09:16 | 43.44920 | 39.95076 | 83 ft | 28 kts | 66° |
| 2026-05-06 09:17 | 43.44866 | 39.95208 | 81 ft | 18 kts | 175° |
| 2026-05-06 09:17 | 43.44796 | 39.95072 | 81 ft | 26 kts | 249° |
| 2026-05-06 09:17 | 43.44700 | 39.94785 | 68 ft | 74 kts | 244° |
| 2026-05-06 09:17 | 43.44239 | 39.93431 | 55 ft | 155 kts | 244° |
| 2026-05-06 09:18 | 43.43754 | 39.92022 | 560 ft | 162 kts | 246° |
| 2026-05-06 09:18 | 43.43444 | 39.90538 | 1267 ft | 162 kts | 257° |
| 2026-05-06 09:18 | 43.43168 | 39.89041 | 1849 ft | 163 kts | 257° |
| 2026-05-06 09:19 | 43.41903 | 39.81195 | 2699 ft | 253 kts | 257° |
| 2026-05-06 09:19 | 43.41508 | 39.78798 | 3366 ft | 260 kts | 257° |
| 2026-05-06 09:20 | 43.41100 | 39.76359 | 4098 ft | 263 kts | 257° |